createdAt,value
2018-03-29T00:01:29.111Z,26.73
2018-03-29T00:03:58.768Z,29.48
2018-03-29T00:06:29.210Z,30.10
2018-03-29T00:08:58.944Z,28.33
2018-03-29T00:11:28.581Z,33.25
2018-03-29T00:13:58.411Z,28.90
2018-03-29T00:16:28.063Z,29.42
2018-03-29T00:18:58.356Z,24.27
2018-03-29T00:21:28.024Z,23.25
2018-03-29T00:26:33.452Z,22.35
2018-03-29T00:29:03.866Z,24.27
2018-03-29T00:31:33.641Z,23.42
2018-03-29T00:34:03.627Z,23.87
2018-03-29T00:36:33.504Z,21.83
2018-03-29T00:39:03.994Z,20.33
2018-03-29T00:41:34.146Z,22.20
2018-03-29T00:44:03.915Z,21.15
2018-03-29T00:46:33.725Z,22.20
2018-03-29T00:49:03.411Z,21.50
2018-03-29T00:51:33.960Z,21.60
2018-03-29T00:54:04.690Z,20.55
2018-03-29T00:56:34.073Z,19.58
2018-03-29T00:59:04.303Z,21.87
2018-03-29T01:01:34.482Z,22.62
2018-03-29T01:04:04.116Z,22.20
2018-03-29T01:06:34.536Z,24.55
2018-03-29T01:09:06.460Z,21.02
2018-03-29T01:11:36.059Z,23.50
2018-03-29T01:14:05.468Z,23.48
2018-03-29T01:16:35.034Z,22.45
2018-03-29T01:19:05.446Z,16.95
2018-03-29T01:21:35.671Z,19.35
2018-03-29T01:24:05.739Z,19.80
2018-03-29T01:26:35.147Z,19.87
2018-03-29T01:29:04.755Z,16.45
2018-03-29T01:31:34.256Z,16.08
2018-03-29T01:34:04.000Z,14.65
2018-03-29T01:36:33.281Z,15.95
2018-03-29T01:40:05.235Z,15.15
2018-03-29T01:42:34.958Z,11.82
2018-03-29T01:45:04.465Z,11.10
2018-03-29T01:47:33.863Z,9.35
2018-03-29T01:50:03.267Z,9.18
2018-03-29T01:52:32.804Z,8.75
2018-03-29T01:55:02.615Z,7.47
2018-03-29T01:57:32.741Z,7.53
2018-03-29T02:00:02.761Z,5.50
2018-03-29T02:02:32.098Z,4.60
2018-03-29T02:05:01.390Z,5.43
2018-03-29T02:07:30.479Z,3.40
2018-03-29T02:10:00.021Z,3.45
2018-03-29T02:12:29.532Z,3.60
2018-03-29T02:14:59.053Z,3.55
2018-03-29T02:17:28.088Z,2.95
2018-03-29T02:19:57.206Z,3.40
2018-03-29T02:22:26.901Z,6.90
2018-03-29T02:24:56.101Z,2.83
2018-03-29T02:27:25.364Z,3.97
2018-03-29T02:29:55.511Z,4.35
2018-03-29T02:32:25.153Z,5.32
2018-03-29T02:34:54.746Z,4.22
2018-03-29T02:37:24.180Z,5.37
2018-03-29T02:39:53.581Z,4.55
2018-03-29T02:42:22.688Z,4.22
2018-03-29T02:44:51.941Z,4.75
2018-03-29T02:47:21.051Z,4.60
2018-03-29T02:49:50.140Z,4.55
2018-03-29T02:52:20.268Z,5.95
2018-03-29T02:58:20.666Z,5.70
2018-03-29T03:00:50.613Z,4.70
2018-03-29T03:03:20.221Z,6.25
2018-03-29T03:05:49.640Z,5.85
2018-03-29T03:08:18.727Z,6.43
2018-03-29T03:10:48.222Z,5.62
2018-03-29T03:13:17.329Z,4.75
2018-03-29T03:15:46.498Z,6.55
2018-03-29T03:18:15.775Z,6.75
2018-03-29T03:20:45.569Z,7.35
2018-03-29T03:23:15.291Z,7.68
2018-03-29T03:25:45.194Z,6.12
2018-03-29T03:28:14.330Z,6.90
2018-03-29T03:30:44.068Z,4.60
2018-03-29T03:33:13.187Z,6.75
2018-03-29T03:35:42.249Z,7.22
2018-03-29T03:38:11.453Z,7.22
2018-03-29T03:40:41.306Z,7.32
2018-03-29T03:43:10.415Z,7.65
2018-03-29T03:45:40.312Z,7.53
2018-03-29T03:48:09.675Z,11.82
2018-03-29T03:50:38.931Z,10.65
2018-03-29T03:53:09.032Z,8.95
2018-03-29T03:55:39.397Z,9.95
2018-03-29T03:58:08.646Z,11.23
2018-03-29T04:00:37.924Z,10.45
2018-03-29T04:03:07.417Z,9.02
2018-03-29T04:05:36.725Z,11.10
2018-03-29T04:08:06.007Z,12.77
2018-03-29T04:10:35.275Z,10.77
2018-03-29T04:13:05.310Z,11.48
2018-03-29T04:15:34.650Z,13.95
2018-03-29T04:18:04.203Z,12.02
2018-03-29T04:20:34.421Z,12.35
2018-03-29T04:23:04.658Z,14.13
2018-03-29T04:25:33.879Z,14.68
2018-03-29T04:28:03.803Z,12.70
2018-03-29T04:30:33.003Z,13.38
2018-03-29T04:33:02.505Z,14.00
2018-03-29T04:35:31.582Z,14.30
2018-03-29T04:38:01.160Z,11.85
2018-03-29T04:40:31.849Z,11.52
2018-03-29T04:43:01.555Z,12.68
2018-03-29T04:45:31.048Z,12.48
2018-03-29T04:48:00.435Z,13.90
2018-03-29T04:50:29.780Z,13.60
2018-03-29T04:52:59.317Z,13.32
2018-03-29T04:55:29.507Z,10.75
2018-03-29T04:58:04.341Z,11.65
2018-03-29T05:00:33.732Z,14.23
2018-03-29T05:03:03.340Z,15.15
2018-03-29T05:05:32.723Z,15.63
2018-03-29T05:08:07.479Z,13.77
2018-03-29T05:10:36.846Z,13.02
2018-03-29T05:13:06.225Z,15.68
2018-03-29T05:15:35.572Z,17.02
2018-03-29T05:18:04.903Z,14.80
2018-03-29T05:20:39.343Z,18.73
2018-03-29T05:23:08.988Z,17.17
2018-03-29T05:25:42.888Z,18.95
2018-03-29T05:28:13.062Z,15.07
2018-03-29T05:30:43.402Z,13.93
2018-03-29T05:33:12.883Z,18.30
2018-03-29T05:35:43.025Z,15.95
2018-03-29T05:38:12.599Z,17.92
2018-03-29T05:40:41.996Z,15.57
2018-03-29T05:43:13.184Z,16.05
2018-03-29T05:45:42.592Z,16.67
2018-03-29T05:48:12.210Z,17.75
2018-03-29T05:50:42.888Z,18.58
2018-03-29T05:53:12.497Z,17.20
2018-03-29T05:55:42.573Z,20.83
2018-03-29T05:58:12.110Z,23.00
2018-03-29T06:00:42.713Z,22.27
2018-03-29T06:03:12.375Z,19.55
2018-03-29T06:05:41.916Z,20.27
2018-03-29T06:08:12.704Z,15.30
2018-03-29T06:10:42.715Z,16.33
2018-03-29T06:13:12.185Z,15.27
2018-03-29T06:15:42.334Z,16.37
2018-03-29T06:18:14.650Z,18.20
2018-03-29T06:20:44.593Z,18.90
2018-03-29T06:23:15.570Z,17.67
2018-03-29T06:25:46.385Z,17.48
2018-03-29T06:28:16.156Z,17.58
2018-03-29T06:30:47.008Z,16.55
2018-03-29T06:33:16.968Z,15.38
2018-03-29T06:35:47.491Z,15.63
2018-03-29T06:38:17.500Z,16.02
2018-03-29T06:40:47.946Z,15.50
2018-03-29T06:43:18.438Z,16.10
2018-03-29T06:45:53.887Z,17.87
2018-03-29T06:48:23.955Z,14.60
2018-03-29T06:50:54.781Z,16.58
2018-03-29T06:53:24.461Z,15.40
2018-03-29T06:55:53.940Z,14.55
2018-03-29T06:58:23.840Z,12.43
2018-03-29T07:00:53.526Z,14.50
2018-03-29T07:03:23.452Z,14.15
2018-03-29T07:05:53.572Z,13.55
2018-03-29T07:08:27.618Z,14.55
2018-03-29T07:10:57.152Z,13.68
2018-03-29T07:13:28.216Z,11.77
2018-03-29T07:15:58.431Z,13.25
2018-03-29T07:18:29.872Z,14.57
2018-03-29T07:21:00.133Z,13.07
2018-03-29T07:23:29.710Z,12.45
2018-03-29T07:26:00.193Z,12.65
2018-03-29T07:28:30.025Z,13.02
2018-03-29T07:30:59.733Z,10.73
2018-03-29T07:33:29.462Z,13.15
2018-03-29T07:35:59.938Z,12.05
2018-03-29T07:38:32.112Z,10.27
2018-03-29T07:41:02.629Z,11.60
2018-03-29T07:43:32.429Z,12.80
2018-03-29T07:46:02.454Z,11.27
2018-03-29T07:48:32.345Z,12.32
2018-03-29T07:51:03.218Z,12.43
2018-03-29T07:53:33.871Z,13.95
2018-03-29T07:56:10.387Z,14.25
2018-03-29T07:58:41.007Z,12.82
2018-03-29T08:01:10.934Z,10.32
2018-03-29T08:06:18.475Z,9.68
2018-03-29T08:08:48.992Z,9.60
2018-03-29T08:11:19.126Z,9.65
2018-03-29T08:13:48.944Z,10.15
2018-03-29T08:16:19.686Z,17.15
2018-03-29T08:18:50.538Z,14.48
2018-03-29T08:21:25.009Z,10.63
2018-03-29T08:23:55.447Z,12.30
2018-03-29T08:26:25.458Z,11.73
2018-03-29T08:28:55.449Z,16.77
2018-03-29T08:31:26.033Z,10.05
2018-03-29T08:33:55.591Z,12.55
2018-03-29T08:36:25.511Z,13.88
2018-03-29T08:38:55.638Z,13.32
2018-03-29T08:41:26.655Z,12.00
2018-03-29T08:43:57.207Z,13.20
2018-03-29T08:46:58.013Z,14.68
2018-03-29T08:49:28.717Z,12.73
2018-03-29T08:51:58.702Z,12.85
2018-03-29T08:54:28.356Z,14.55
2018-03-29T08:56:58.093Z,12.60
2018-03-29T08:59:28.922Z,13.90
2018-03-29T09:01:59.880Z,11.75
2018-03-29T09:08:03.098Z,13.38
2018-03-29T09:10:32.634Z,14.02
2018-03-29T09:13:02.461Z,13.98
2018-03-29T09:15:32.296Z,13.35
2018-03-29T09:18:02.932Z,16.25
2018-03-29T09:20:33.368Z,15.43
2018-03-29T09:23:04.276Z,16.83
2018-03-29T09:25:33.811Z,18.85
2018-03-29T09:28:05.006Z,18.62
2018-03-29T09:30:34.941Z,17.52
2018-03-29T09:33:04.517Z,17.15
2018-03-29T09:35:34.212Z,18.30
2018-03-29T09:38:04.211Z,17.60
2018-03-29T09:40:35.407Z,14.90
2018-03-29T09:43:05.832Z,15.70
2018-03-29T09:45:36.302Z,17.25
2018-03-29T09:48:06.308Z,16.90
2018-03-29T09:50:36.703Z,15.50
2018-03-29T09:53:06.266Z,18.05
2018-03-29T09:55:36.029Z,15.80
2018-03-29T09:58:05.675Z,18.55
2018-03-29T10:00:36.666Z,18.73
2018-03-29T10:03:09.910Z,15.63
2018-03-29T10:05:39.751Z,20.15
2018-03-29T10:08:09.374Z,18.33
2018-03-29T10:10:39.816Z,18.25
2018-03-29T10:13:10.920Z,14.85
2018-03-29T10:15:41.458Z,18.20
2018-03-29T10:18:11.068Z,16.15
2018-03-29T10:20:41.599Z,18.60
2018-03-29T10:23:11.542Z,20.23
2018-03-29T10:25:42.184Z,16.62
2018-03-29T10:28:25.756Z,17.87
2018-03-29T10:30:56.386Z,20.92
2018-03-29T10:33:26.362Z,18.80
2018-03-29T10:35:56.906Z,18.73
2018-03-29T10:38:27.450Z,16.52
2018-03-29T10:40:57.675Z,17.37
2018-03-29T10:43:27.885Z,17.37
2018-03-29T10:45:58.414Z,14.87
2018-03-29T10:48:28.708Z,17.12
2018-03-29T10:50:58.055Z,19.98
2018-03-29T10:53:27.880Z,20.77
2018-03-29T10:55:57.531Z,19.70
2018-03-29T10:58:27.263Z,18.83
2018-03-29T11:00:58.307Z,19.77
2018-03-29T11:03:28.856Z,17.90
2018-03-29T11:05:58.484Z,24.63
2018-03-29T11:08:28.176Z,26.83
2018-03-29T11:10:57.668Z,23.98
2018-03-29T11:13:27.887Z,24.75
2018-03-29T11:15:58.188Z,30.98
2018-03-29T11:18:29.207Z,31.67
2018-03-29T11:20:59.483Z,27.35
2018-03-29T11:23:29.720Z,30.65
2018-03-29T11:25:59.309Z,29.60
2018-03-29T11:28:29.678Z,28.15
2018-03-29T11:31:00.933Z,26.35
2018-03-29T11:33:35.578Z,23.73
2018-03-29T11:36:04.943Z,23.48
2018-03-29T11:38:35.378Z,20.50
2018-03-29T11:41:05.110Z,21.15
2018-03-29T11:43:34.991Z,24.25
2018-03-29T11:46:05.460Z,21.12
2018-03-29T11:48:35.730Z,22.55
2018-03-29T11:51:05.301Z,24.83
2018-03-29T11:53:36.071Z,18.90
2018-03-29T11:56:06.887Z,20.08
2018-03-29T11:58:36.600Z,18.95
2018-03-29T12:01:06.462Z,20.90
2018-03-29T12:03:36.977Z,19.77
2018-03-29T12:06:06.581Z,19.65
2018-03-29T12:08:36.256Z,20.17
2018-03-29T12:11:05.818Z,17.67
2018-03-29T12:13:42.605Z,18.58
2018-03-29T12:16:12.013Z,19.17
2018-03-29T12:18:42.307Z,17.95
2018-03-29T12:21:11.882Z,17.50
2018-03-29T12:23:41.444Z,14.60
2018-03-29T12:26:16.594Z,15.48
2018-03-29T12:28:47.030Z,18.27
2018-03-29T12:31:17.497Z,13.68
2018-03-29T12:33:47.884Z,14.75
2018-03-29T12:36:18.286Z,13.25
2018-03-29T12:38:47.860Z,12.23
2018-03-29T12:41:20.416Z,15.00
2018-03-29T12:43:50.059Z,15.15
2018-03-29T12:46:24.768Z,13.85
2018-03-29T12:48:54.739Z,13.32
2018-03-29T12:51:25.260Z,13.65
2018-03-29T12:53:56.084Z,13.80
2018-03-29T12:56:34.359Z,13.18
2018-03-29T12:59:21.010Z,14.87
2018-03-29T13:01:51.184Z,15.02
2018-03-29T13:04:21.069Z,14.55
2018-03-29T13:06:50.741Z,16.73
2018-03-29T13:09:20.332Z,16.65
2018-03-29T13:11:50.195Z,19.20
2018-03-29T13:14:20.005Z,16.23
2018-03-29T13:16:50.291Z,18.15
2018-03-29T13:19:19.869Z,18.52
2018-03-29T13:21:58.255Z,18.17
2018-03-29T13:24:27.869Z,16.00
2018-03-29T13:26:57.511Z,19.33
2018-03-29T13:29:28.027Z,19.50
2018-03-29T13:31:58.492Z,15.60
2018-03-29T13:34:28.894Z,15.73
2018-03-29T13:36:59.687Z,15.02
2018-03-29T13:39:29.148Z,12.05
2018-03-29T13:41:59.038Z,13.45
2018-03-29T13:44:28.910Z,15.02
2018-03-29T13:47:02.186Z,16.75
2018-03-29T13:49:32.678Z,13.50
2018-03-29T13:52:03.146Z,14.43
2018-03-29T13:54:33.523Z,16.35
2018-03-29T13:57:03.198Z,17.37
2018-03-29T13:59:33.116Z,15.73
2018-03-29T14:02:03.285Z,17.27
2018-03-29T14:04:33.594Z,17.77
2018-03-29T14:07:03.248Z,18.80
2018-03-29T14:09:33.695Z,17.98
2018-03-29T14:12:03.355Z,19.48
2018-03-29T14:14:36.176Z,17.12
2018-03-29T14:17:08.563Z,16.42
2018-03-29T14:19:38.781Z,18.55
2018-03-29T14:22:12.093Z,15.70
2018-03-29T14:24:42.999Z,18.15
2018-03-29T14:27:13.196Z,17.83
2018-03-29T14:29:43.771Z,17.45
2018-03-29T14:32:14.293Z,17.67
2018-03-29T14:34:43.970Z,18.05
2018-03-29T14:37:15.875Z,19.02
2018-03-29T14:39:45.862Z,15.95
2018-03-29T14:42:16.455Z,11.50
2018-03-29T14:44:47.084Z,12.00
2018-03-29T14:47:16.598Z,10.05
2018-03-29T14:49:47.307Z,11.90
2018-03-29T14:52:17.016Z,10.93
2018-03-29T14:54:46.556Z,13.88
2018-03-29T14:57:16.154Z,12.82
2018-03-29T14:59:46.413Z,11.65
2018-03-29T15:02:16.005Z,10.75
2018-03-29T15:04:46.478Z,9.93
2018-03-29T15:07:16.955Z,10.10
2018-03-29T15:09:47.516Z,9.65
2018-03-29T15:12:17.289Z,11.38
2018-03-29T15:14:47.003Z,10.95
2018-03-29T15:17:16.771Z,10.25
2018-03-29T15:19:46.557Z,9.23
2018-03-29T15:22:16.277Z,12.45
2018-03-29T15:24:46.058Z,15.38
2018-03-29T15:27:16.752Z,15.32
2018-03-29T15:29:46.572Z,13.15
2018-03-29T15:32:16.133Z,16.05
2018-03-29T15:34:45.832Z,13.23
2018-03-29T15:37:16.497Z,16.58
2018-03-29T15:39:46.824Z,11.07
2018-03-29T15:42:16.702Z,11.02
2018-03-29T15:44:46.567Z,10.02
2018-03-29T15:47:20.407Z,12.98
2018-03-29T15:49:50.090Z,10.90
2018-03-29T15:52:19.535Z,10.20
2018-03-29T15:54:49.983Z,9.45
2018-03-29T15:57:19.499Z,8.63
2018-03-29T15:59:49.914Z,11.70
2018-03-29T16:02:20.337Z,9.73
2018-03-29T16:04:50.592Z,10.35
2018-03-29T16:07:21.471Z,10.30
2018-03-29T16:09:50.935Z,9.77
2018-03-29T16:12:21.015Z,10.60
2018-03-29T16:14:51.266Z,9.13
2018-03-29T16:17:21.455Z,9.98
2018-03-29T16:19:51.043Z,9.60
2018-03-29T16:22:21.764Z,9.90
2018-03-29T16:24:51.453Z,10.43
2018-03-29T16:27:22.804Z,10.63
2018-03-29T16:29:53.261Z,12.30
2018-03-29T16:32:23.707Z,10.95
2018-03-29T16:34:53.393Z,9.05
2018-03-29T16:37:23.682Z,9.07
2018-03-29T16:39:53.339Z,11.02
2018-03-29T16:42:37.553Z,9.18
2018-03-29T16:45:07.488Z,9.65
2018-03-29T16:47:38.315Z,9.70
2018-03-29T16:50:08.631Z,8.77
2018-03-29T16:52:38.959Z,9.82
2018-03-29T16:55:08.607Z,9.88
2018-03-29T16:57:47.255Z,10.68
2018-03-29T17:00:18.548Z,13.45
2018-03-29T17:02:48.277Z,8.25
2018-03-29T17:05:19.048Z,10.98
2018-03-29T17:07:48.774Z,9.43
2018-03-29T17:10:19.145Z,8.27
2018-03-29T17:12:48.612Z,9.63
2018-03-29T17:15:18.269Z,8.27
2018-03-29T17:17:47.776Z,11.25
2018-03-29T17:20:18.250Z,8.13
2018-03-29T17:22:47.982Z,8.93
2018-03-29T17:25:18.289Z,9.00
2018-03-29T17:27:48.984Z,7.70
2018-03-29T17:30:18.576Z,7.40
2018-03-29T17:35:26.183Z,7.28
2018-03-29T17:37:55.650Z,8.10
2018-03-29T17:40:24.996Z,8.60
2018-03-29T17:43:01.520Z,6.05
2018-03-29T17:45:31.236Z,7.72
2018-03-29T17:48:01.586Z,7.30
2018-03-29T17:50:34.395Z,7.50
2018-03-29T17:53:04.751Z,7.00
2018-03-29T17:55:34.275Z,6.90
2018-03-29T17:58:05.771Z,8.75
2018-03-29T18:00:36.052Z,7.72
2018-03-29T18:03:06.271Z,6.00
2018-03-29T18:05:36.730Z,7.12
2018-03-29T18:08:06.241Z,6.65
2018-03-29T18:10:35.537Z,7.00
2018-03-29T18:13:05.222Z,7.45
2018-03-29T18:15:35.542Z,8.05
2018-03-29T18:18:05.164Z,6.32
2018-03-29T18:20:34.630Z,7.53
2018-03-29T18:23:04.313Z,6.90
2018-03-29T18:25:33.843Z,7.80
2018-03-29T18:28:03.779Z,6.97
2018-03-29T18:31:04.255Z,8.00
2018-03-29T18:33:33.637Z,7.78
2018-03-29T18:36:03.087Z,7.37
2018-03-29T18:38:32.636Z,9.57
2018-03-29T18:41:02.930Z,8.00
2018-03-29T18:43:32.444Z,8.77
2018-03-29T18:46:02.081Z,6.93
2018-03-29T18:48:31.737Z,7.80
2018-03-29T18:51:01.141Z,8.38
2018-03-29T18:53:30.545Z,13.13
2018-03-29T18:56:00.029Z,8.25
2018-03-29T18:58:29.492Z,7.25
2018-03-29T19:01:00.797Z,9.25
2018-03-29T19:03:30.408Z,7.95
2018-03-29T19:06:00.634Z,7.87
2018-03-29T19:08:30.116Z,8.13
2018-03-29T19:11:02.399Z,8.32
2018-03-29T19:13:31.866Z,7.70
2018-03-29T19:16:01.908Z,7.07
2018-03-29T19:18:31.408Z,7.90
2018-03-29T19:21:00.851Z,7.90
2018-03-29T19:23:30.322Z,7.20
2018-03-29T19:25:59.816Z,9.10
2018-03-29T19:28:29.296Z,7.80
2018-03-29T19:30:59.544Z,8.65
2018-03-29T19:34:48.901Z,10.80
2018-03-29T19:37:18.258Z,10.13
2018-03-29T19:39:47.523Z,8.15
2018-03-29T19:42:17.062Z,9.15
2018-03-29T19:44:55.165Z,9.60
2018-03-29T19:47:24.554Z,10.95
2018-03-29T19:49:53.808Z,10.98
2018-03-29T19:52:23.192Z,11.82
2018-03-29T19:54:53.406Z,11.55
2018-03-29T19:57:23.724Z,9.70
2018-03-29T19:59:53.056Z,12.30
2018-03-29T20:02:22.456Z,9.85
2018-03-29T20:04:51.867Z,9.40
2018-03-29T20:07:21.374Z,11.48
2018-03-29T20:09:53.380Z,10.00
2018-03-29T20:12:22.793Z,10.85
2018-03-29T20:14:54.370Z,10.35
2018-03-29T20:17:29.095Z,9.13
2018-03-29T20:19:59.392Z,11.12
2018-03-29T20:22:28.776Z,8.80
2018-03-29T20:24:58.198Z,9.35
2018-03-29T20:27:27.660Z,10.60
2018-03-29T20:29:57.088Z,11.43
2018-03-29T20:35:58.463Z,11.80
2018-03-29T20:38:27.899Z,11.57
2018-03-29T20:41:00.739Z,9.45
2018-03-29T20:43:30.447Z,10.20
2018-03-29T20:46:00.310Z,10.65
2018-03-29T20:48:30.648Z,10.93
2018-03-29T20:51:00.920Z,10.90
2018-03-29T20:53:30.474Z,12.10
2018-03-29T20:55:59.941Z,10.63
2018-03-29T20:58:30.426Z,10.25
2018-03-29T21:01:00.207Z,9.65
2018-03-29T21:03:29.823Z,10.60
2018-03-29T21:06:00.386Z,12.70
2018-03-29T21:08:30.782Z,9.60
2018-03-29T21:11:00.299Z,9.50
2018-03-29T21:13:29.767Z,9.90
2018-03-29T21:15:59.932Z,11.30
2018-03-29T21:18:30.414Z,10.73
2018-03-29T21:20:59.932Z,10.93
2018-03-29T21:23:30.639Z,11.68
2018-03-29T21:27:19.705Z,10.73
2018-03-29T21:29:49.517Z,10.07
2018-03-29T21:32:19.114Z,11.12
2018-03-29T21:34:48.728Z,10.77
2018-03-29T21:37:18.526Z,11.18
2018-03-29T21:39:48.164Z,11.10
2018-03-29T21:42:22.102Z,9.43
2018-03-29T21:44:51.576Z,8.82
2018-03-29T21:47:21.229Z,9.00
2018-03-29T21:49:50.526Z,7.53
2018-03-29T21:52:19.953Z,9.55
2018-03-29T21:54:49.574Z,8.82
2018-03-29T21:57:19.113Z,9.55
2018-03-29T21:59:48.590Z,8.77
2018-03-29T22:02:20.167Z,7.18
2018-03-29T22:04:49.575Z,6.60
2018-03-29T22:07:19.842Z,8.40
2018-03-29T22:09:49.187Z,6.55
2018-03-29T22:12:18.622Z,8.40
2018-03-29T22:14:48.783Z,5.70
2018-03-29T22:17:18.324Z,6.40
2018-03-29T22:19:47.997Z,5.87
2018-03-29T22:22:17.321Z,8.52
2018-03-29T22:24:46.754Z,7.53
2018-03-29T22:27:17.056Z,8.45
2018-03-29T22:29:46.471Z,9.80
2018-03-29T22:32:17.133Z,10.35
2018-03-29T22:34:46.612Z,9.50
2018-03-29T22:37:16.808Z,9.50
2018-03-29T22:39:46.400Z,10.38
2018-03-29T22:42:15.851Z,8.88
2018-03-29T22:44:45.900Z,8.88
2018-03-29T22:47:15.434Z,6.32
2018-03-29T22:49:45.112Z,6.35
2018-03-29T22:52:14.700Z,5.90
2018-03-29T22:54:44.456Z,5.95
2018-03-29T22:57:14.896Z,6.18
2018-03-29T22:59:47.129Z,4.87
2018-03-29T23:02:16.726Z,4.80
2018-03-29T23:04:46.140Z,5.05
2018-03-29T23:07:16.561Z,5.68
2018-03-29T23:09:46.099Z,5.57
2018-03-29T23:12:15.792Z,6.85
2018-03-29T23:14:45.494Z,4.62
2018-03-29T23:17:15.208Z,5.05
2018-03-29T23:19:45.389Z,7.62
2018-03-29T23:22:15.719Z,5.28
2018-03-29T23:24:46.144Z,5.35
2018-03-29T23:27:16.624Z,5.00
2018-03-29T23:29:46.324Z,5.90
2018-03-29T23:32:15.941Z,5.05
2018-03-29T23:34:45.636Z,4.37
2018-03-29T23:37:15.139Z,5.93
2018-03-29T23:39:44.748Z,5.28
2018-03-29T23:42:14.705Z,4.20
2018-03-29T23:44:45.200Z,6.00
2018-03-29T23:47:14.680Z,3.95
2018-03-29T23:49:44.116Z,4.25
2018-03-29T23:52:13.541Z,4.22
2018-03-29T23:54:43.044Z,4.60
2018-03-29T23:57:12.835Z,4.05
2018-03-29T23:59:42.412Z,4.07
